Time;durP1;ratioP1;P1;durP2;ratioP2;P2;SDS_P1;SDS_P2;PMS_P1;PMS_P2;Temp;Humidity;BMP_temperature;BMP_pressure;BME280_temperature;BME280_humidity;BME280_pressure;Samples;Min_cycle;Max_cycle;Signal;HPM_P1;HPM_P2
2022/10/23 00:00:36;;;;;;;30.65;21.15;;;19.70;1.00;;;;;;5054500;28;20125;-61
2022/10/23 00:03:02;;;;;;;30.00;21.63;;;19.70;1.00;;;;;;5049090;28;20020;-61
2022/10/23 00:05:28;;;;;;;27.52;20.20;;;19.70;1.00;;;;;;5054802;28;20132;-61
2022/10/23 00:07:56;;;;;;;24.52;19.02;;;19.70;1.00;;;;;;5045013;28;20029;-61
2022/10/23 00:10:23;;;;;;;25.52;19.83;;;19.70;1.00;;;;;;5053609;28;20032;-61
2022/10/23 00:12:50;;;;;;;24.92;20.90;;;19.60;1.00;;;;;;5054098;28;20524;-61
2022/10/23 00:15:19;;;;;;;28.33;21.80;;;19.60;1.00;;;;;;5058253;28;20064;-61
2022/10/23 00:17:45;;;;;;;28.88;22.00;;;19.70;1.00;;;;;;5048284;28;20498;-61
2022/10/23 00:20:12;;;;;;;26.42;20.92;;;19.60;1.00;;;;;;5050803;28;20033;-61
2022/10/23 00:22:38;;;;;;;30.77;19.08;;;19.60;1.00;;;;;;5054080;28;20474;-61
2022/10/23 00:25:05;;;;;;;27.08;19.75;;;19.70;1.00;;;;;;5039728;28;20025;-60
2022/10/23 00:27:31;;;;;;;29.30;18.00;;;19.60;1.00;;;;;;5053872;28;20036;-60
2022/10/23 00:29:56;;;;;;;22.67;18.08;;;19.70;1.00;;;;;;5053054;28;20037;-61
2022/10/23 00:32:22;;;;;;;24.17;18.48;;;19.70;1.00;;;;;;5053838;28;20021;-60
2022/10/23 00:34:48;;;;;;;29.13;18.83;;;19.70;1.00;;;;;;5052966;28;20044;-61
2022/10/23 00:37:13;;;;;;;24.73;19.10;;;19.70;1.00;;;;;;5048278;28;20029;-60
2022/10/23 00:39:39;;;;;;;23.15;19.38;;;19.70;1.00;;;;;;5050549;28;20068;-61
2022/10/23 00:42:04;;;;;;;27.13;21.00;;;19.70;1.00;;;;;;5053788;28;20029;-60
2022/10/23 00:44:30;;;;;;;22.08;17.77;;;19.70;1.00;;;;;;5049428;28;20536;-61
2022/10/23 00:46:57;;;;;;;24.00;19.80;;;19.60;1.00;;;;;;5039218;28;20057;-61
2022/10/23 00:49:24;;;;;;;27.95;18.60;;;19.70;1.00;;;;;;5052449;28;20037;-61
2022/10/23 00:51:57;;;;;;;26.50;17.23;;;19.70;1.00;;;;;;5053475;28;20029;-61
2022/10/23 00:54:26;;;;;;;24.13;17.83;;;19.60;1.00;;;;;;5052652;28;20434;-61
2022/10/23 00:56:57;;;;;;;21.27;17.00;;;19.60;1.00;;;;;;5053044;28;20029;-60
2022/10/23 00:59:23;;;;;;;24.63;16.88;;;19.60;1.00;;;;;;5052148;28;20096;-60
2022/10/23 01:01:49;;;;;;;17.23;15.02;;;19.60;1.00;;;;;;5053373;28;20033;-60
2022/10/23 01:04:14;;;;;;;20.27;15.48;;;19.60;1.00;;;;;;5045785;28;20685;-61
2022/10/23 01:07:09;;;;;;;21.08;16.33;;;19.60;1.00;;;;;;5042233;28;20082;-60
2022/10/23 01:09:56;;;;;;;16.55;14.55;;;19.50;1.00;;;;;;5050883;28;20032;-60
2022/10/23 01:12:39;;;;;;;20.60;15.57;;;19.40;1.00;;;;;;5053140;28;20037;-61
2022/10/23 01:15:19;;;;;;;21.30;14.75;;;19.40;1.00;;;;;;5052052;28;20048;-60
2022/10/23 01:17:51;;;;;;;20.15;14.07;;;19.50;1.00;;;;;;5052803;28;20406;-60
2022/10/23 01:20:28;;;;;;;18.80;14.60;;;19.40;1.00;;;;;;5050836;28;20033;-60
2022/10/23 01:23:34;;;;;;;18.05;13.68;;;19.30;1.00;;;;;;5052431;28;20021;-61
2022/10/23 01:26:24;;;;;;;17.85;13.68;;;19.30;1.00;;;;;;5045537;28;20029;-60
2022/10/23 01:29:14;;;;;;;16.77;13.57;;;19.20;1.00;;;;;;5047319;28;20036;-60
2022/10/23 01:31:49;;;;;;;18.67;13.40;;;19.30;1.00;;;;;;5047542;28;20552;-60
2022/10/23 01:34:21;;;;;;;18.35;14.32;;;19.20;1.00;;;;;;5050865;28;20032;-60
2022/10/23 01:36:48;;;;;;;20.50;15.13;;;19.20;1.00;;;;;;5051310;28;20033;-61
2022/10/23 01:39:28;;;;;;;15.80;13.25;;;19.20;1.00;;;;;;5050512;28;20105;-61
2022/10/23 01:42:10;;;;;;;17.25;13.43;;;19.10;1.00;;;;;;5050552;28;20025;-60
2022/10/23 01:44:44;;;;;;;14.52;12.48;;;19.20;1.00;;;;;;5050623;28;20056;-60
2022/10/23 01:47:12;;;;;;;24.48;14.95;;;19.10;1.00;;;;;;5047793;28;20041;-60
2022/10/23 01:49:40;;;;;;;18.52;13.13;;;19.10;1.00;;;;;;5051654;28;20083;-61
2022/10/23 01:52:10;;;;;;;17.40;13.07;;;19.00;1.00;;;;;;5051993;28;20111;-60
2022/10/23 01:54:39;;;;;;;17.48;13.02;;;19.10;1.00;;;;;;5035814;28;20037;-61
2022/10/23 01:57:09;;;;;;;17.58;12.75;;;19.00;1.00;;;;;;5047760;28;20045;-60
2022/10/23 01:59:40;;;;;;;16.63;13.20;;;19.10;1.00;;;;;;5051131;28;20558;-60
2022/10/23 02:02:09;;;;;;;16.38;12.45;;;18.80;1.00;;;;;;5051409;28;20399;-60
2022/10/23 02:04:57;;;;;;;15.98;12.70;;;19.10;1.00;;;;;;5050869;28;20536;-60
2022/10/23 02:07:23;;;;;;;15.30;12.15;;;19.00;1.00;;;;;;5049886;28;20098;-60
2022/10/23 02:09:49;;;;;;;14.60;12.50;;;19.10;1.00;;;;;;5051116;28;20021;-61
2022/10/23 02:12:29;;;;;;;13.65;11.80;;;19.00;1.00;;;;;;5051023;28;20609;-61
2022/10/23 02:15:07;;;;;;;19.55;11.68;;;19.00;1.00;;;;;;5049620;28;20037;-60
2022/10/23 02:18:01;;;;;;;17.77;11.30;;;19.00;1.00;;;;;;5050768;28;20040;-60
2022/10/23 02:20:32;;;;;;;15.13;11.65;;;19.10;1.00;;;;;;5049181;28;20124;-61
2022/10/23 02:23:07;;;;;;;14.50;11.02;;;19.00;1.00;;;;;;5051365;28;20485;-60
2022/10/23 02:25:38;;;;;;;16.70;11.45;;;19.10;1.00;;;;;;5034925;28;20073;-61
2022/10/23 02:28:09;;;;;;;12.35;11.00;;;19.10;1.00;;;;;;5044489;28;20182;-60
2022/10/23 02:30:39;;;;;;;12.90;10.30;;;19.00;1.00;;;;;;5040542;28;20029;-60
2022/10/23 02:33:06;;;;;;;13.90;10.68;;;19.00;1.00;;;;;;5037895;28;20021;-61
2022/10/23 02:35:32;;;;;;;11.95;10.35;;;19.00;1.00;;;;;;5041483;28;20052;-61
2022/10/23 02:37:59;;;;;;;13.15;10.13;;;18.80;1.00;;;;;;5044313;28;20479;-61
2022/10/23 02:40:33;;;;;;;11.90;10.23;;;18.90;1.00;;;;;;5044071;28;20045;-60
2022/10/23 02:43:10;;;;;;;14.73;10.47;;;18.90;1.00;;;;;;5041626;28;20025;-60
2022/10/23 02:45:47;;;;;;;10.52;9.27;;;18.90;1.00;;;;;;5044273;28;20391;-60
2022/10/23 02:48:21;;;;;;;12.35;9.73;;;18.90;1.00;;;;;;5051427;28;20025;-61
2022/10/23 02:51:02;;;;;;;11.45;9.00;;;18.90;1.00;;;;;;5053973;28;20044;-61
2022/10/23 02:53:46;;;;;;;12.35;9.73;;;18.90;1.00;;;;;;5055863;28;20025;-61
2022/10/23 02:56:17;;;;;;;13.02;9.50;;;19.00;1.00;;;;;;5044348;28;20386;-61
2022/10/23 02:58:44;;;;;;;10.48;8.10;;;18.90;1.00;;;;;;5049772;28;20032;-60
2022/10/23 03:01:20;;;;;;;13.75;9.18;;;19.00;1.00;;;;;;5054604;28;20779;-60
2022/10/23 03:03:53;;;;;;;11.05;9.38;;;19.00;1.00;;;;;;5043866;28;20060;-60
2022/10/23 03:06:19;;;;;;;9.73;8.73;;;18.90;1.00;;;;;;5040807;28;20025;-60
2022/10/23 03:09:06;;;;;;;11.70;9.20;;;19.00;1.00;;;;;;5042621;28;20032;-60
2022/10/23 03:11:31;;;;;;;12.48;9.02;;;19.00;1.00;;;;;;5041878;28;20021;-61
2022/10/23 03:13:57;;;;;;;11.50;8.52;;;18.90;1.00;;;;;;5042375;28;20094;-60
2022/10/23 03:16:23;;;;;;;8.57;7.75;;;18.90;1.00;;;;;;5043033;28;20124;-60
2022/10/23 03:18:49;;;;;;;11.98;8.55;;;18.90;1.00;;;;;;5045399;28;20336;-60
2022/10/23 03:21:14;;;;;;;10.32;9.20;;;18.80;1.00;;;;;;5053685;28;20033;-61
2022/10/23 03:23:40;;;;;;;12.38;8.88;;;18.80;1.00;;;;;;5055266;28;20450;-61
2022/10/23 03:26:06;;;;;;;11.32;9.18;;;18.90;1.00;;;;;;5053308;28;20029;-60
2022/10/23 03:28:31;;;;;;;13.82;7.85;;;18.90;1.00;;;;;;5052135;28;20127;-60
2022/10/23 03:30:57;;;;;;;8.45;7.57;;;18.90;1.00;;;;;;5050011;28;20108;-61
2022/10/23 03:33:23;;;;;;;12.95;8.18;;;18.90;1.00;;;;;;5055023;28;20029;-60
2022/10/23 03:35:49;;;;;;;11.45;8.35;;;18.90;1.00;;;;;;5054024;28;20363;-61
2022/10/23 03:38:15;;;;;;;8.88;7.97;;;19.00;1.00;;;;;;5046818;28;20121;-61
2022/10/23 03:40:41;;;;;;;12.95;8.48;;;19.00;1.00;;;;;;5049930;28;20098;-61
2022/10/23 03:43:07;;;;;;;11.75;9.07;;;19.00;1.00;;;;;;5054822;28;20025;-61
2022/10/23 03:45:33;;;;;;;10.98;8.18;;;19.00;1.00;;;;;;5048996;28;20041;-60
2022/10/23 03:47:58;;;;;;;9.95;7.80;;;19.00;1.00;;;;;;5038939;28;20056;-60
2022/10/23 03:50:24;;;;;;;9.52;8.00;;;19.00;1.00;;;;;;5053739;28;20037;-60
2022/10/23 03:52:50;;;;;;;11.23;7.65;;;18.90;1.00;;;;;;5054655;28;20112;-60
2022/10/23 03:55:16;;;;;;;9.10;7.68;;;18.90;1.00;;;;;;5049656;28;20486;-60
2022/10/23 03:57:41;;;;;;;15.40;8.75;;;18.90;1.00;;;;;;5046017;28;20039;-63
2022/10/23 04:00:08;;;;;;;10.88;7.88;;;18.80;1.00;;;;;;5052406;28;20041;-60
2022/10/23 04:02:33;;;;;;;9.30;7.55;;;18.70;1.00;;;;;;5049582;28;20036;-60
2022/10/23 04:04:59;;;;;;;9.00;7.70;;;18.80;1.00;;;;;;5047065;28;20040;-60
2022/10/23 04:07:24;;;;;;;8.23;7.32;;;18.80;1.00;;;;;;5051054;28;20043;-60
2022/10/23 04:09:50;;;;;;;8.65;7.70;;;18.80;1.00;;;;;;5052350;28;20036;-61
2022/10/23 04:12:16;;;;;;;9.48;7.47;;;18.80;1.00;;;;;;5054465;28;20501;-61
2022/10/23 04:14:42;;;;;;;8.07;7.28;;;18.80;1.00;;;;;;5048896;28;20381;-60
2022/10/23 04:17:07;;;;;;;7.32;6.63;;;18.80;1.00;;;;;;5050532;28;20088;-60
2022/10/23 04:19:33;;;;;;;8.23;7.30;;;18.80;1.00;;;;;;5049377;28;20124;-60
2022/10/23 04:21:59;;;;;;;10.13;7.40;;;18.70;1.00;;;;;;5053911;28;20390;-60
2022/10/23 04:24:25;;;;;;;13.73;7.15;;;18.70;1.00;;;;;;5053078;28;20062;-60
2022/10/23 04:26:50;;;;;;;10.25;7.57;;;18.60;1.00;;;;;;5052350;28;20112;-60
2022/10/23 04:29:16;;;;;;;9.27;7.32;;;18.80;1.00;;;;;;5040511;28;20033;-60
2022/10/23 04:31:42;;;;;;;7.85;6.95;;;18.70;1.00;;;;;;5053934;28;20024;-60
2022/10/23 04:34:07;;;;;;;8.30;6.55;;;18.80;1.00;;;;;;5053934;28;20017;-60
2022/10/23 04:36:33;;;;;;;8.10;6.38;;;18.80;1.00;;;;;;5045798;28;20391;-60
2022/10/23 04:38:59;;;;;;;7.00;5.80;;;18.70;1.00;;;;;;5049259;28;20021;-60
2022/10/23 04:41:24;;;;;;;8.82;6.30;;;18.80;1.00;;;;;;5050985;28;20558;-60
2022/10/23 04:43:50;;;;;;;7.60;5.93;;;18.80;1.00;;;;;;5053940;28;20017;-60
2022/10/23 04:46:16;;;;;;;7.60;6.28;;;18.80;1.00;;;;;;5053013;28;20029;-60
2022/10/23 04:48:41;;;;;;;6.90;6.20;;;18.80;1.00;;;;;;5045577;28;20025;-60
2022/10/23 04:51:07;;;;;;;7.22;6.40;;;18.80;1.00;;;;;;5052898;28;20035;-61
2022/10/23 04:53:33;;;;;;;8.13;5.95;;;18.80;1.00;;;;;;5049648;28;20063;-60
2022/10/23 04:55:58;;;;;;;9.82;6.90;;;18.80;1.00;;;;;;5051505;28;20036;-60
2022/10/23 04:58:25;;;;;;;7.97;6.22;;;18.80;1.00;;;;;;5053409;28;20012;-61
2022/10/23 05:00:51;;;;;;;10.18;6.72;;;18.80;1.00;;;;;;5051869;28;20120;-60
2022/10/23 05:03:18;;;;;;;10.93;6.75;;;18.70;1.00;;;;;;5040077;28;20056;-60
2022/10/23 05:05:44;;;;;;;10.00;6.18;;;18.70;1.00;;;;;;5051415;28;20036;-60
2022/10/23 05:08:10;;;;;;;8.05;6.25;;;18.70;1.00;;;;;;5040805;28;20082;-61
2022/10/23 05:10:36;;;;;;;7.80;5.90;;;18.70;1.00;;;;;;5051573;28;20033;-61
2022/10/23 05:13:02;;;;;;;8.55;6.25;;;18.70;1.00;;;;;;5042139;28;20083;-61
2022/10/23 05:15:28;;;;;;;12.80;5.75;;;18.70;1.00;;;;;;5036683;28;20053;-60
2022/10/23 05:17:58;;;;;;;7.57;6.32;;;18.70;1.00;;;;;;5044892;28;20421;-60
2022/10/23 05:20:28;;;;;;;8.40;6.05;;;18.70;1.00;;;;;;5049124;28;20068;-61
2022/10/23 05:22:57;;;;;;;6.95;6.13;;;18.60;1.00;;;;;;5051342;28;20071;-60
2022/10/23 05:25:22;;;;;;;7.38;5.70;;;18.60;1.00;;;;;;5051722;28;20025;-61
2022/10/23 05:27:48;;;;;;;8.48;6.38;;;18.70;1.00;;;;;;5058565;28;20500;-60
2022/10/23 05:30:14;;;;;;;9.23;5.97;;;18.60;1.00;;;;;;5053683;28;20098;-61
2022/10/23 05:32:40;;;;;;;6.50;5.55;;;18.70;1.00;;;;;;5043452;28;20021;-60
2022/10/23 05:35:10;;;;;;;8.15;5.88;;;18.70;1.00;;;;;;5058668;28;20157;-60
2022/10/23 05:37:40;;;;;;;8.25;6.03;;;18.70;1.00;;;;;;5053112;28;20036;-61
2022/10/23 05:40:06;;;;;;;7.93;5.35;;;18.70;1.00;;;;;;5051891;28;20049;-60
2022/10/23 05:42:32;;;;;;;9.50;5.40;;;18.70;1.00;;;;;;5051354;28;20056;-60
2022/10/23 05:44:58;;;;;;;6.30;5.30;;;18.70;1.00;;;;;;5042176;28;20061;-60
2022/10/23 05:47:23;;;;;;;7.50;4.88;;;18.60;1.00;;;;;;5052603;28;20017;-60
2022/10/23 05:49:49;;;;;;;8.88;4.75;;;18.50;1.00;;;;;;5052941;28;20489;-60
2022/10/23 05:52:14;;;;;;;7.30;4.57;;;18.50;1.00;;;;;;5048873;28;20040;-61
2022/10/23 05:54:40;;;;;;;9.20;5.00;;;18.50;1.00;;;;;;5051866;28;20113;-60
2022/10/23 05:57:06;;;;;;;6.28;4.82;;;18.60;1.00;;;;;;5051280;28;20037;-60
2022/10/23 05:59:31;;;;;;;5.20;4.70;;;18.70;1.00;;;;;;5052595;28;20021;-60
2022/10/23 06:01:57;;;;;;;5.13;4.60;;;18.70;1.00;;;;;;5051624;28;20040;-60
2022/10/23 06:04:22;;;;;;;5.70;4.55;;;18.70;1.00;;;;;;5052619;28;20067;-61
2022/10/23 06:06:48;;;;;;;7.38;4.57;;;18.60;1.00;;;;;;5051871;28;20029;-60
2022/10/23 06:09:14;;;;;;;5.53;4.68;;;18.60;1.00;;;;;;5051861;28;20025;-60
2022/10/23 06:11:41;;;;;;;6.82;5.05;;;18.60;1.00;;;;;;5054663;28;20100;-60
2022/10/23 06:14:06;;;;;;;6.97;4.90;;;18.50;1.00;;;;;;5057026;28;20029;-61
2022/10/23 06:16:32;;;;;;;6.55;4.53;;;18.60;1.00;;;;;;5054277;28;20449;-60
2022/10/23 06:18:59;;;;;;;5.38;4.45;;;18.60;1.00;;;;;;5056754;28;20021;-61
2022/10/23 06:21:24;;;;;;;9.27;4.70;;;18.60;1.00;;;;;;5054879;28;20485;-60
2022/10/23 06:23:50;;;;;;;8.15;4.00;;;18.70;1.00;;;;;;5047390;28;20017;-60
2022/10/23 06:26:18;;;;;;;5.80;4.78;;;18.60;1.00;;;;;;5048416;28;20031;-61
2022/10/23 06:28:43;;;;;;;5.18;4.32;;;18.70;1.00;;;;;;5054483;28;20039;-61
2022/10/23 06:31:14;;;;;;;6.63;4.85;;;18.60;1.00;;;;;;5053736;28;20029;-60
2022/10/23 06:33:40;;;;;;;5.40;4.82;;;18.70;1.00;;;;;;5047324;28;20053;-60
2022/10/23 06:36:09;;;;;;;5.55;4.50;;;18.80;1.00;;;;;;5042709;28;20504;-60
2022/10/23 06:38:39;;;;;;;6.68;4.60;;;18.70;1.00;;;;;;5051120;28;20021;-60
2022/10/23 06:41:16;;;;;;;5.20;4.53;;;18.60;1.00;;;;;;5055254;28;20038;-61
2022/10/23 06:43:41;;;;;;;9.57;4.53;;;18.50;1.00;;;;;;5048104;28;20094;-60
2022/10/23 06:46:07;;;;;;;9.43;4.53;;;18.70;1.00;;;;;;5054836;28;20474;-61
2022/10/23 06:48:33;;;;;;;7.70;4.10;;;18.70;1.00;;;;;;5055411;28;20058;-60
2022/10/23 06:51:04;;;;;;;6.55;4.60;;;18.70;1.00;;;;;;5048369;28;20029;-61
2022/10/23 06:53:29;;;;;;;6.28;4.82;;;18.60;1.00;;;;;;5054941;28;20501;-60
2022/10/23 06:55:59;;;;;;;7.25;4.32;;;18.60;1.00;;;;;;5048763;28;20103;-60
2022/10/23 06:58:25;;;;;;;4.88;4.13;;;18.70;1.00;;;;;;5045135;28;20017;-61
2022/10/23 07:00:51;;;;;;;5.78;3.92;;;18.70;1.00;;;;;;5050865;28;20482;-61
2022/10/23 07:03:16;;;;;;;4.93;4.40;;;18.80;1.00;;;;;;5055846;28;20017;-61
2022/10/23 07:05:43;;;;;;;5.95;4.38;;;18.80;1.00;;;;;;5054039;28;20064;-61
2022/10/23 07:08:10;;;;;;;6.45;4.45;;;18.80;1.00;;;;;;5055010;28;20045;-60
2022/10/23 07:10:36;;;;;;;4.95;4.38;;;18.80;1.00;;;;;;5053282;28;20370;-61
2022/10/23 07:13:02;;;;;;;4.95;3.97;;;18.90;1.00;;;;;;5053998;28;20100;-60
2022/10/23 07:15:28;;;;;;;5.00;4.15;;;18.90;1.00;;;;;;5050555;28;20053;-61
2022/10/23 07:17:54;;;;;;;6.43;4.10;;;18.90;1.00;;;;;;5045264;28;20120;-60
2022/10/23 07:20:20;;;;;;;4.68;4.15;;;18.80;1.00;;;;;;5052002;28;20364;-61
2022/10/23 07:22:54;;;;;;;5.90;4.15;;;18.90;1.00;;;;;;5052282;28;20055;-60
2022/10/23 07:25:21;;;;;;;4.65;4.18;;;18.80;1.00;;;;;;5048685;28;20090;-65
2022/10/23 07:27:47;;;;;;;5.38;3.60;;;18.90;1.00;;;;;;5045721;28;20025;-60
2022/10/23 07:30:13;;;;;;;7.05;4.63;;;18.90;1.00;;;;;;5054354;28;20025;-61
2022/10/23 07:32:39;;;;;;;5.30;4.40;;;18.80;1.00;;;;;;5054911;28;20021;-62
2022/10/23 07:35:05;;;;;;;4.22;3.83;;;18.90;1.00;;;;;;5045677;28;20018;-62
2022/10/23 07:37:31;;;;;;;6.13;4.10;;;18.90;1.00;;;;;;5058003;28;20025;-61
2022/10/23 07:39:56;;;;;;;4.80;3.95;;;19.00;1.00;;;;;;5042303;28;20036;-60
2022/10/23 07:42:22;;;;;;;4.63;3.80;;;19.00;1.00;;;;;;5051196;28;20044;-61
2022/10/23 07:44:48;;;;;;;5.30;4.80;;;18.90;1.00;;;;;;5050909;28;20043;-61
2022/10/23 07:47:13;;;;;;;4.13;3.65;;;19.00;1.00;;;;;;5050688;28;20068;-61
2022/10/23 07:49:39;;;;;;;4.50;4.13;;;19.00;1.00;;;;;;5047191;28;20032;-61
2022/10/23 07:52:05;;;;;;;5.88;4.18;;;19.00;1.00;;;;;;5053572;28;20119;-61
2022/10/23 07:54:31;;;;;;;5.43;4.18;;;19.10;1.00;;;;;;5054520;28;20017;-61
2022/10/23 07:57:00;;;;;;;5.55;4.43;;;19.20;1.00;;;;;;5053328;28;20039;-61
2022/10/23 07:59:26;;;;;;;5.97;4.32;;;19.20;1.00;;;;;;5048695;28;20467;-61
2022/10/23 08:01:55;;;;;;;6.10;4.45;;;19.20;1.00;;;;;;5050151;28;20032;-61
2022/10/23 08:04:21;;;;;;;4.72;4.22;;;19.20;1.00;;;;;;5052687;28;20489;-61
2022/10/23 08:06:47;;;;;;;8.57;7.60;;;19.20;1.00;;;;;;5047984;28;20094;-61
2022/10/23 08:09:13;;;;;;;7.53;4.60;;;19.20;1.00;;;;;;5041791;28;20024;-61
2022/10/23 08:11:38;;;;;;;6.82;5.05;;;19.30;1.00;;;;;;5048495;28;20021;-61
2022/10/23 08:14:05;;;;;;;6.70;4.32;;;19.20;1.00;;;;;;5040844;28;20103;-61
2022/10/23 08:16:33;;;;;;;6.18;4.25;;;19.20;1.00;;;;;;5043860;28;20118;-60
2022/10/23 08:18:59;;;;;;;9.57;5.28;;;19.20;1.00;;;;;;5041883;28;20100;-61
2022/10/23 08:21:25;;;;;;;4.80;4.22;;;19.20;1.00;;;;;;5051529;28;20045;-61
2022/10/23 08:23:55;;;;;;;5.47;4.13;;;19.20;1.00;;;;;;5045875;28;20029;-60
2022/10/23 08:26:23;;;;;;;5.32;4.10;;;19.30;1.00;;;;;;5039713;28;20033;-60
2022/10/23 08:28:49;;;;;;;5.55;3.75;;;19.30;1.00;;;;;;5038306;28;20019;-61
2022/10/23 08:31:17;;;;;;;4.57;4.07;;;19.40;1.00;;;;;;5042133;28;20036;-61
2022/10/23 08:33:43;;;;;;;5.60;4.07;;;19.50;1.00;;;;;;5051358;28;20087;-61
2022/10/23 08:36:35;;;;;;;6.32;5.05;;;19.50;1.00;;;;;;5047092;28;20025;-61
2022/10/23 08:39:01;;;;;;;6.53;5.18;;;19.60;1.00;;;;;;5039624;28;20025;-61
2022/10/23 08:41:35;;;;;;;8.05;4.80;;;19.60;1.00;;;;;;5046340;28;20045;-60
2022/10/23 08:44:26;;;;;;;4.40;4.00;;;19.70;1.00;;;;;;5040758;28;20070;-61
2022/10/23 08:47:16;;;;;;;5.00;4.50;;;19.80;1.00;;;;;;5044294;28;20040;-61
2022/10/23 08:50:02;;;;;;;5.40;4.03;;;19.70;1.00;;;;;;5048724;28;20052;-61
2022/10/23 08:52:54;;;;;;;7.25;4.40;;;19.70;1.00;;;;;;5043100;28;20107;-61
2022/10/23 08:55:28;;;;;;;7.63;4.25;;;19.70;1.00;;;;;;5041253;28;20040;-61
2022/10/23 08:58:04;;;;;;;5.00;4.43;;;19.70;1.00;;;;;;5049583;28;20119;-61
2022/10/23 09:00:30;;;;;;;7.57;4.80;;;19.70;1.00;;;;;;5042645;28;20111;-61
2022/10/23 09:02:56;;;;;;;4.70;4.15;;;19.70;1.00;;;;;;5052782;28;20048;-60
2022/10/23 09:05:24;;;;;;;6.50;4.28;;;19.80;1.00;;;;;;5051628;28;20040;-61
2022/10/23 09:08:02;;;;;;;5.40;4.45;;;19.80;1.00;;;;;;5052296;28;20039;-61
2022/10/23 09:10:55;;;;;;;6.20;4.68;;;19.80;1.00;;;;;;5053341;28;20032;-60
2022/10/23 09:13:29;;;;;;;10.05;4.88;;;19.80;1.00;;;;;;5049666;28;20076;-61
2022/10/23 09:16:13;;;;;;;5.63;4.97;;;19.80;1.00;;;;;;5047562;28;20053;-61
2022/10/23 09:18:41;;;;;;;6.70;4.45;;;19.80;1.00;;;;;;5053473;28;20040;-61
2022/10/23 09:21:09;;;;;;;6.13;5.55;;;19.90;1.00;;;;;;5038224;28;20508;-61
2022/10/23 09:23:35;;;;;;;6.47;5.45;;;19.90;1.00;;;;;;5050882;28;20029;-63
2022/10/23 09:26:06;;;;;;;6.18;5.43;;;19.90;1.00;;;;;;5040666;28;20033;-61
2022/10/23 09:28:41;;;;;;;5.80;5.25;;;19.90;1.00;;;;;;5051143;28;20035;-61
2022/10/23 09:31:09;;;;;;;6.60;5.53;;;19.70;1.00;;;;;;5043853;28;20628;-61
2022/10/23 09:33:36;;;;;;;5.53;5.00;;;19.80;1.00;;;;;;5045576;28;20028;-61
2022/10/23 09:36:12;;;;;;;8.55;5.35;;;19.90;1.00;;;;;;5040508;28;20131;-61
2022/10/23 09:38:48;;;;;;;8.88;5.43;;;19.90;1.00;;;;;;5046367;28;20074;-61
2022/10/23 09:41:35;;;;;;;6.18;4.95;;;19.90;1.00;;;;;;5047411;28;20410;-61
2022/10/23 09:44:00;;;;;;;7.00;5.55;;;20.00;1.00;;;;;;5048264;28;20044;-61
2022/10/23 09:46:40;;;;;;;8.68;5.55;;;20.10;1.00;;;;;;5050882;28;20029;-61
2022/10/23 09:49:18;;;;;;;6.68;5.68;;;20.20;1.00;;;;;;5052072;28;20024;-61
2022/10/23 09:51:59;;;;;;;6.63;5.40;;;20.40;1.00;;;;;;5051804;28;20037;-61
2022/10/23 09:54:25;;;;;;;5.75;5.20;;;20.30;1.00;;;;;;5047334;28;20032;-60
2022/10/23 09:56:53;;;;;;;6.97;5.28;;;20.30;1.00;;;;;;5042751;28;20025;-61
2022/10/23 09:59:28;;;;;;;8.75;6.78;;;20.40;1.00;;;;;;5052724;28;20475;-60
2022/10/23 10:01:59;;;;;;;7.88;5.65;;;20.50;1.00;;;;;;5051635;28;20043;-60
2022/10/23 10:04:39;;;;;;;6.90;5.20;;;20.70;1.00;;;;;;5052582;28;20020;-61
2022/10/23 10:07:22;;;;;;;10.23;6.40;;;20.80;1.00;;;;;;5041383;28;20033;-61
2022/10/23 10:09:48;;;;;;;8.73;5.60;;;20.80;1.00;;;;;;5052346;28;20017;-61
2022/10/23 10:12:47;;;;;;;9.68;6.72;;;20.80;1.00;;;;;;5046900;28;20569;-61
2022/10/23 10:15:36;;;;;;;7.95;6.13;;;20.80;1.00;;;;;;5042261;28;20041;-60
2022/10/23 10:18:24;;;;;;;9.80;6.55;;;20.80;1.00;;;;;;5033282;28;20079;-60
2022/10/23 10:21:08;;;;;;;10.70;6.45;;;20.90;1.00;;;;;;5037303;28;20036;-61
2022/10/23 10:23:39;;;;;;;9.85;6.70;;;20.80;1.00;;;;;;5041423;28;20059;-61
2022/10/23 10:26:32;;;;;;;8.82;6.60;;;20.80;1.00;;;;;;5048619;28;20040;-61
2022/10/23 10:29:09;;;;;;;8.35;6.78;;;20.80;1.00;;;;;;5044627;28;20104;-61
2022/10/23 10:31:59;;;;;;;9.88;6.05;;;20.70;1.00;;;;;;5051475;28;20033;-61
2022/10/23 10:34:34;;;;;;;8.30;6.18;;;20.70;1.00;;;;;;5052366;28;20071;-61
2022/10/23 10:37:30;;;;;;;10.02;6.43;;;20.70;1.00;;;;;;5038452;28;20025;-61
2022/10/23 10:40:20;;;;;;;10.50;6.18;;;20.80;1.00;;;;;;5048687;28;20036;-61
2022/10/23 10:43:04;;;;;;;9.50;7.38;;;20.70;1.00;;;;;;5058400;28;20386;-61
2022/10/23 10:45:30;;;;;;;11.95;6.60;;;20.70;1.00;;;;;;5038859;28;20025;-61
2022/10/23 10:48:07;;;;;;;7.93;5.93;;;20.80;1.00;;;;;;5050521;28;20032;-61
2022/10/23 10:50:53;;;;;;;8.32;5.95;;;20.90;1.00;;;;;;5038426;28;20033;-61
2022/10/23 10:53:37;;;;;;;12.30;7.07;;;20.90;1.00;;;;;;5058748;28;20386;-61
2022/10/23 10:56:04;;;;;;;9.45;6.70;;;20.90;1.00;;;;;;5051234;28;20025;-61
2022/10/23 10:59:08;;;;;;;6.97;6.28;;;20.90;1.00;;;;;;5052419;28;20405;-61
2022/10/23 11:01:53;;;;;;;9.25;6.47;;;20.90;1.00;;;;;;5014485;28;20037;-61
2022/10/23 11:04:44;;;;;;;7.95;5.97;;;20.90;1.00;;;;;;5054488;28;20051;-61
2022/10/23 11:07:13;;;;;;;9.77;6.82;;;20.80;1.00;;;;;;5052393;28;20052;-62
2022/10/23 11:09:40;;;;;;;12.43;7.22;;;20.70;1.00;;;;;;5055274;28;20073;-62
2022/10/23 11:12:12;;;;;;;8.07;7.20;;;20.80;1.00;;;;;;5054533;28;20029;-62
2022/10/23 11:14:41;;;;;;;10.43;6.50;;;20.80;1.00;;;;;;5055306;28;20483;-60
2022/10/23 11:17:18;;;;;;;9.65;7.15;;;20.80;1.00;;;;;;5048821;28;20124;-61
2022/10/23 11:20:05;;;;;;;8.20;6.55;;;20.80;1.00;;;;;;5054170;28;20053;-61
2022/10/23 11:22:56;;;;;;;8.20;5.97;;;20.80;1.00;;;;;;5041068;28;20494;-61
2022/10/23 11:25:59;;;;;;;11.07;7.60;;;20.90;1.00;;;;;;5048226;28;20033;-62
2022/10/23 11:28:48;;;;;;;13.55;7.53;;;21.10;1.00;;;;;;5052050;28;20044;-62
2022/10/23 11:31:29;;;;;;;9.73;6.60;;;21.10;1.00;;;;;;5055234;28;20021;-62
2022/10/23 11:34:31;;;;;;;17.63;7.82;;;21.10;1.00;;;;;;5046193;28;20087;-61
2022/10/23 11:37:00;;;;;;;13.05;6.63;;;21.10;1.00;;;;;;5039783;28;20029;-62
2022/10/23 11:39:33;;;;;;;7.88;6.28;;;21.10;1.00;;;;;;5054818;28;20021;-61
2022/10/23 11:42:05;;;;;;;10.93;7.10;;;21.20;1.00;;;;;;5054002;28;20509;-61
2022/10/23 11:44:33;;;;;;;9.85;6.97;;;21.30;1.00;;;;;;5054919;28;20025;-61
2022/10/23 11:47:34;;;;;;;13.38;7.82;;;21.20;1.00;;;;;;5053837;28;20035;-61
2022/10/23 11:50:06;;;;;;;11.70;7.50;;;21.30;1.00;;;;;;5049566;28;20447;-61
2022/10/23 11:52:37;;;;;;;14.05;7.15;;;21.20;1.00;;;;;;5053761;28;20097;-61
2022/10/23 11:55:16;;;;;;;10.95;7.30;;;21.20;1.00;;;;;;5054734;28;20029;-61
2022/10/23 11:57:43;;;;;;;11.18;8.10;;;21.20;1.00;;;;;;5044233;28;20053;-61
2022/10/23 12:00:21;;;;;;;10.40;7.70;;;21.30;1.00;;;;;;5051955;28;20032;-61
2022/10/23 12:02:53;;;;;;;9.65;7.10;;;21.20;1.00;;;;;;5053883;28;20075;-62
2022/10/23 12:05:40;;;;;;;10.45;7.85;;;21.20;1.00;;;;;;5053261;28;20486;-61
2022/10/23 12:08:26;;;;;;;8.68;7.05;;;21.30;1.00;;;;;;5040274;28;20471;-61
2022/10/23 12:10:54;;;;;;;9.75;7.40;;;21.30;1.00;;;;;;5042569;28;20025;-61
2022/10/23 12:13:37;;;;;;;10.30;8.10;;;21.30;1.00;;;;;;5053768;28;20024;-61
2022/10/23 12:16:06;;;;;;;11.73;7.57;;;21.20;1.00;;;;;;5054091;28;20072;-62
2022/10/23 12:18:32;;;;;;;9.80;7.70;;;21.20;1.00;;;;;;5050633;28;20087;-62
2022/10/23 12:21:00;;;;;;;10.45;7.55;;;21.20;1.00;;;;;;5054258;28;20044;-61
2022/10/23 12:23:29;;;;;;;9.75;7.82;;;21.20;1.00;;;;;;5046827;28;20493;-62
2022/10/23 12:26:15;;;;;;;10.90;7.97;;;21.20;1.00;;;;;;5036591;28;20052;-62
2022/10/23 12:29:00;;;;;;;9.05;7.65;;;21.10;1.00;;;;;;5029314;28;20033;-61
2022/10/23 12:31:45;;;;;;;9.80;7.63;;;21.10;1.00;;;;;;5045477;28;20095;-62
2022/10/23 12:34:28;;;;;;;11.93;7.85;;;21.10;1.00;;;;;;5046462;28;20033;-61
2022/10/23 12:37:15;;;;;;;13.77;9.10;;;21.10;1.00;;;;;;5051698;28;20029;-62
2022/10/23 12:39:41;;;;;;;12.25;9.05;;;21.10;1.00;;;;;;5040343;28;20039;-62
2022/10/23 12:42:21;;;;;;;12.88;8.55;;;21.00;1.00;;;;;;5053102;28;20029;-61
2022/10/23 12:45:00;;;;;;;10.88;7.85;;;21.00;1.00;;;;;;5054146;28;20028;-62
2022/10/23 12:47:27;;;;;;;15.70;8.73;;;21.00;1.00;;;;;;5052808;28;20466;-62
2022/10/23 12:49:52;;;;;;;12.38;8.13;;;21.00;1.00;;;;;;5053847;28;20029;-62
2022/10/23 12:52:20;;;;;;;14.05;8.15;;;21.00;1.00;;;;;;5053206;28;20378;-62
2022/10/23 12:54:46;;;;;;;11.60;7.30;;;21.00;1.00;;;;;;5052262;28;20028;-62
2022/10/23 12:57:21;;;;;;;13.27;7.30;;;21.00;1.00;;;;;;5050797;28;20386;-61
2022/10/23 12:59:47;;;;;;;14.15;7.80;;;21.00;1.00;;;;;;5039715;28;20038;-62
2022/10/23 13:02:20;;;;;;;10.70;7.72;;;20.90;1.00;;;;;;5046438;28;20029;-61
2022/10/23 13:04:47;;;;;;;10.80;7.32;;;21.00;1.00;;;;;;5052741;28;20096;-61
2022/10/23 13:07:13;;;;;;;9.65;7.60;;;21.00;1.00;;;;;;5051186;28;20818;-62
2022/10/23 13:09:41;;;;;;;7.65;6.70;;;21.00;1.00;;;;;;5052643;28;20112;-61
2022/10/23 13:12:14;;;;;;;10.43;8.07;;;21.00;1.00;;;;;;5052166;28;20033;-61